Time;durP1;ratioP1;P1;durP2;ratioP2;P2;SDS_P1;SDS_P2;PMS_P1;PMS_P2;Temp;Humidity;BMP_temperature;BMP_pressure;BME280_temperature;BME280_humidity;BME280_pressure;Samples;Min_cycle;Max_cycle;Signal;HPM_P1;HPM_P2
2023/12/06 00:01:30;;;;;;;73.70;70.05;;;;;;;;;;5021462;28;20443;-60
2023/12/06 00:03:55;;;;;;;71.15;67.63;;;;;;;;;;5029930;28;20065;-60
2023/12/06 00:06:21;;;;;;;74.05;70.35;;;;;;;;;;5025097;28;20041;-60
2023/12/06 00:08:48;;;;;;;72.97;69.32;;;;;;;;;;5029434;28;20109;-60
2023/12/06 00:11:14;;;;;;;71.47;67.90;;;;;;;;;;5028478;28;20034;-60
2023/12/06 00:13:39;;;;;;;72.10;68.50;;;;;;;;;;5028938;28;20040;-62
2023/12/06 00:16:05;;;;;;;72.93;68.97;;;;;;;;;;5027440;28;20036;-61
2023/12/06 00:18:31;;;;;;;74.50;70.78;;;;;;;;;;5026212;28;20037;-61
2023/12/06 00:20:56;;;;;;;72.85;69.22;;;;;;;;;;5024956;28;20035;-61
2023/12/06 00:23:21;;;;;;;76.35;72.53;;;;;;;;;;5025056;28;20041;-61
2023/12/06 00:25:47;;;;;;;72.65;69.05;;;;;;;;;;5026530;28;20540;-61
2023/12/06 00:28:12;;;;;;;72.35;68.75;;;;;;;;;;5026416;28;20029;-61
2023/12/06 00:30:37;;;;;;;75.18;71.45;;;;;;;;;;5022222;28;20041;-61
2023/12/06 00:33:03;;;;;;;78.80;74.90;;;;;;;;;;5023824;28;20045;-61
2023/12/06 00:35:29;;;;;;;77.55;73.70;;;;;;;;;;5025730;28;20037;-61
2023/12/06 00:37:54;;;;;;;76.38;72.55;;;;;;;;;;5024574;28;20055;-61
2023/12/06 00:40:19;;;;;;;79.28;75.32;;;;;;;;;;5025184;28;20040;-61
2023/12/06 00:42:45;;;;;;;75.55;71.80;;;;;;;;;;5023729;28;20033;-61
2023/12/06 00:45:10;;;;;;;79.13;75.15;;;;;;;;;;5023832;28;20482;-61
2023/12/06 00:47:36;;;;;;;75.15;71.38;;;;;;;;;;5026346;28;20030;-61
2023/12/06 00:50:03;;;;;;;77.07;73.22;;;;;;;;;;5024807;28;20038;-61
2023/12/06 00:52:28;;;;;;;71.25;67.70;;;;;;;;;;5022196;28;20112;-61
2023/12/06 00:54:53;;;;;;;74.53;70.78;;;;;;;;;;5024657;28;20113;-61
2023/12/06 00:57:18;;;;;;;71.30;67.72;;;;;;;;;;5022433;28;20047;-62
2023/12/06 00:59:44;;;;;;;73.82;70.15;;;;;;;;;;5024858;28;20045;-61
2023/12/06 01:02:09;;;;;;;73.00;69.38;;;;;;;;;;5027576;28;20052;-61
2023/12/06 01:04:37;;;;;;;75.75;71.95;;;;;;;;;;5028015;28;20262;-61
2023/12/06 01:07:03;;;;;;;71.22;67.65;;;;;;;;;;5021945;28;20235;-62
2023/12/06 01:09:29;;;;;;;73.85;70.10;;;;;;;;;;5026625;28;20039;-59
2023/12/06 01:11:54;;;;;;;69.63;66.15;;;;;;;;;;5027236;28;20358;-59
2023/12/06 01:14:19;;;;;;;74.43;70.72;;;;;;;;;;5026813;28;20033;-59
2023/12/06 01:16:44;;;;;;;72.35;68.70;;;;;;;;;;5021511;28;20099;-59
2023/12/06 01:19:10;;;;;;;68.30;64.90;;;;;;;;;;5025177;28;20041;-59
2023/12/06 01:21:35;;;;;;;67.07;63.67;;;;;;;;;;5022021;28;20062;-62
2023/12/06 01:24:01;;;;;;;69.65;66.18;;;;;;;;;;5022602;28;20067;-62
2023/12/06 01:26:26;;;;;;;76.53;72.72;;;;;;;;;;5023731;28;20421;-59
2023/12/06 01:28:51;;;;;;;71.47;67.90;;;;;;;;;;5027626;28;20411;-61
2023/12/06 01:31:17;;;;;;;69.03;65.57;;;;;;;;;;5024511;28;20398;-59
2023/12/06 01:33:42;;;;;;;72.32;68.70;;;;;;;;;;5026680;28;20022;-60
2023/12/06 01:36:08;;;;;;;68.20;64.78;;;;;;;;;;5027168;28;20103;-60
2023/12/06 01:38:33;;;;;;;68.10;64.45;;;;;;;;;;5026242;28;20057;-61
2023/12/06 01:40:58;;;;;;;72.30;68.70;;;;;;;;;;5024341;28;20370;-60
2023/12/06 01:43:24;;;;;;;74.22;70.43;;;;;;;;;;5024952;28;20367;-60
2023/12/06 01:45:49;;;;;;;75.57;71.80;;;;;;;;;;5023819;28;20474;-61
2023/12/06 01:48:18;;;;;;;76.22;72.43;;;;;;;;;;5023981;28;20049;-61
2023/12/06 01:50:44;;;;;;;76.80;72.97;;;;;;;;;;5021991;28;20048;-60
2023/12/06 01:53:09;;;;;;;77.90;73.95;;;;;;;;;;5022929;28;20033;-61
2023/12/06 01:55:35;;;;;;;76.68;72.88;;;;;;;;;;5028100;28;20057;-60
2023/12/06 01:58:00;;;;;;;77.93;74.03;;;;;;;;;;5023767;28;20036;-60
2023/12/06 02:00:26;;;;;;;76.15;72.40;;;;;;;;;;5022312;28;20038;-60
2023/12/06 02:02:52;;;;;;;78.82;74.88;;;;;;;;;;5025648;28;20087;-61
2023/12/06 02:05:18;;;;;;;78.07;74.18;;;;;;;;;;5033182;28;20033;-61
2023/12/06 02:07:45;;;;;;;74.40;70.65;;;;;;;;;;5025416;28;20041;-60
2023/12/06 02:10:11;;;;;;;78.97;75.03;;;;;;;;;;5028995;28;20029;-61
2023/12/06 02:12:36;;;;;;;75.53;71.75;;;;;;;;;;5027390;28;20086;-61
2023/12/06 02:15:02;;;;;;;77.60;73.70;;;;;;;;;;5026787;28;20075;-61
2023/12/06 02:17:28;;;;;;;77.60;73.75;;;;;;;;;;5030505;28;20092;-60
2023/12/06 02:19:54;;;;;;;75.68;71.88;;;;;;;;;;5024917;28;20466;-60
2023/12/06 02:22:21;;;;;;;80.90;76.72;;;;;;;;;;5031589;28;20025;-61
2023/12/06 02:24:49;;;;;;;78.53;74.55;;;;;;;;;;5026600;28;20040;-61
2023/12/06 02:27:15;;;;;;;74.63;70.90;;;;;;;;;;5011822;28;20630;-61
2023/12/06 02:29:40;;;;;;;80.03;76.03;;;;;;;;;;5028434;28;20109;-61
2023/12/06 02:32:06;;;;;;;77.57;73.70;;;;;;;;;;5028243;28;20071;-61
2023/12/06 02:34:32;;;;;;;78.13;74.20;;;;;;;;;;5027051;28;20026;-61
2023/12/06 02:37:03;;;;;;;77.60;73.72;;;;;;;;;;5024725;28;20395;-61
2023/12/06 02:39:31;;;;;;;;;;;;;;;;;;5030129;28;20041;-60
2023/12/06 02:41:56;;;;;;;65.90;62.58;;;;;;;;;;5025535;28;19909;-60
2023/12/06 02:44:22;;;;;;;72.22;68.60;;;;;;;;;;5030727;28;20525;-61
2023/12/06 02:46:47;;;;;;;75.65;71.88;;;;;;;;;;5012482;28;20029;-61
2023/12/06 02:49:12;;;;;;;77.50;73.60;;;;;;;;;;5027392;28;20083;-61
2023/12/06 02:51:38;;;;;;;77.05;73.20;;;;;;;;;;5027001;28;20075;-61
2023/12/06 02:54:03;;;;;;;72.78;69.13;;;;;;;;;;5027735;28;20153;-61
2023/12/06 02:56:28;;;;;;;75.35;71.60;;;;;;;;;;5028454;28;20141;-61
2023/12/06 02:58:54;;;;;;;78.55;74.63;;;;;;;;;;5024938;28;20071;-61
2023/12/06 03:01:19;;;;;;;77.53;73.65;;;;;;;;;;5024714;28;20463;-61
2023/12/06 03:03:44;;;;;;;77.82;73.88;;;;;;;;;;5030135;28;20467;-61
2023/12/06 03:06:10;;;;;;;74.82;71.05;;;;;;;;;;5027605;28;20041;-61
2023/12/06 03:08:35;;;;;;;75.72;71.93;;;;;;;;;;5025779;28;20592;-61
2023/12/06 03:11:00;;;;;;;73.88;70.07;;;;;;;;;;5026496;28;20073;-61
2023/12/06 03:13:26;;;;;;;74.88;71.05;;;;;;;;;;5027891;28;20037;-61
2023/12/06 03:15:51;;;;;;;75.03;71.22;;;;;;;;;;5026415;28;20033;-61
2023/12/06 03:18:16;;;;;;;74.00;70.28;;;;;;;;;;5030920;28;20336;-61
2023/12/06 03:20:41;;;;;;;74.15;70.45;;;;;;;;;;5025671;28;20052;-61
2023/12/06 03:23:07;;;;;;;74.75;71.03;;;;;;;;;;5024625;28;20604;-61
2023/12/06 03:25:32;;;;;;;71.88;68.28;;;;;;;;;;5024330;28;20124;-62
2023/12/06 03:27:58;;;;;;;73.60;69.93;;;;;;;;;;5026173;28;20064;-61
2023/12/06 03:30:24;;;;;;;72.30;68.47;;;;;;;;;;5027439;28;20123;-61
2023/12/06 03:32:49;;;;;;;79.07;75.10;;;;;;;;;;5024414;28;20033;-63
2023/12/06 03:35:15;;;;;;;80.25;76.15;;;;;;;;;;5025721;28;20041;-62
2023/12/06 03:37:40;;;;;;;78.38;74.32;;;;;;;;;;5027182;28;20120;-63
2023/12/06 03:40:06;;;;;;;82.60;78.45;;;;;;;;;;5027239;28;20383;-62
2023/12/06 03:42:31;;;;;;;80.72;76.60;;;;;;;;;;5025340;28;20104;-63
2023/12/06 03:44:57;;;;;;;81.30;77.18;;;;;;;;;;5025025;28;20033;-62
2023/12/06 03:47:22;;;;;;;83.07;78.90;;;;;;;;;;5027597;28;20386;-62
2023/12/06 03:49:48;;;;;;;79.05;75.03;;;;;;;;;;5025002;28;20040;-62
2023/12/06 03:52:13;;;;;;;82.93;78.75;;;;;;;;;;5027325;28;20038;-62
2023/12/06 03:54:38;;;;;;;79.20;75.25;;;;;;;;;;5026520;28;20029;-62
2023/12/06 03:57:04;;;;;;;76.57;72.75;;;;;;;;;;5027804;28;20062;-62
2023/12/06 03:59:29;;;;;;;76.45;72.57;;;;;;;;;;5030725;28;20060;-62
2023/12/06 04:01:55;;;;;;;76.20;72.38;;;;;;;;;;5021892;28;20047;-59
2023/12/06 04:04:20;;;;;;;77.68;73.78;;;;;;;;;;5031514;28;20677;-58
2023/12/06 04:06:45;;;;;;;77.78;73.85;;;;;;;;;;5026327;28;20663;-58
2023/12/06 04:09:10;;;;;;;80.10;76.07;;;;;;;;;;5026541;28;20460;-59
2023/12/06 04:11:37;;;;;;;82.63;78.50;;;;;;;;;;5026306;28;20490;-58
2023/12/06 04:14:03;;;;;;;79.00;75.05;;;;;;;;;;5030784;28;20025;-58
2023/12/06 04:16:29;;;;;;;80.03;76.03;;;;;;;;;;5026444;28;20033;-58
2023/12/06 04:18:54;;;;;;;82.10;78.00;;;;;;;;;;5023329;28;20033;-58
2023/12/06 04:21:20;;;;;;;79.65;75.68;;;;;;;;;;5026795;28;20611;-58
2023/12/06 04:23:45;;;;;;;78.10;74.13;;;;;;;;;;5024628;28;20043;-59
2023/12/06 04:26:11;;;;;;;85.82;81.38;;;;;;;;;;5023883;28;20577;-58
2023/12/06 04:28:36;;;;;;;83.65;79.35;;;;;;;;;;5027017;28;20040;-59
2023/12/06 04:31:01;;;;;;;81.40;77.28;;;;;;;;;;5022198;28;20612;-58
2023/12/06 04:33:27;;;;;;;91.53;86.93;;;;;;;;;;5023617;28;20041;-58
2023/12/06 04:35:52;;;;;;;80.65;76.60;;;;;;;;;;5021705;28;20041;-58
2023/12/06 04:38:17;;;;;;;85.20;80.82;;;;;;;;;;5024089;28;20071;-59
2023/12/06 04:40:43;;;;;;;83.32;79.10;;;;;;;;;;5027016;28;20030;-59
2023/12/06 04:43:08;;;;;;;87.75;83.28;;;;;;;;;;5024034;28;20034;-59
2023/12/06 04:45:33;;;;;;;84.13;79.63;;;;;;;;;;5024372;28;20033;-59
2023/12/06 04:47:59;;;;;;;83.60;79.45;;;;;;;;;;5026966;28;20135;-58
2023/12/06 04:50:24;;;;;;;82.93;78.78;;;;;;;;;;5022115;28;20038;-58
2023/12/06 04:52:49;;;;;;;83.47;79.30;;;;;;;;;;5024998;28;20545;-59
2023/12/06 04:55:15;;;;;;;83.43;79.15;;;;;;;;;;5020319;28;20026;-58
2023/12/06 04:57:40;;;;;;;91.30;86.65;;;;;;;;;;5029611;28;20521;-58
2023/12/06 05:00:08;;;;;;;83.55;79.20;;;;;;;;;;5023199;28;20073;-58
2023/12/06 05:02:33;;;;;;;85.43;81.13;;;;;;;;;;5026179;28;20033;-58
2023/12/06 05:04:58;;;;;;;84.13;79.88;;;;;;;;;;5023733;28;20035;-58
2023/12/06 05:07:24;;;;;;;84.00;79.78;;;;;;;;;;5025438;28;20037;-58
2023/12/06 05:09:49;;;;;;;86.00;81.68;;;;;;;;;;5023757;28;20029;-58
2023/12/06 05:12:15;;;;;;;86.57;82.25;;;;;;;;;;5027123;28;20094;-58
2023/12/06 05:14:40;;;;;;;80.78;76.60;;;;;;;;;;5023382;28;20356;-58
2023/12/06 05:17:05;;;;;;;81.18;76.82;;;;;;;;;;5024265;28;20052;-58
2023/12/06 05:19:31;;;;;;;84.00;79.80;;;;;;;;;;5024214;28;20040;-58
2023/12/06 05:21:56;;;;;;;86.85;82.40;;;;;;;;;;5025331;28;20068;-58
2023/12/06 05:24:21;;;;;;;87.15;82.80;;;;;;;;;;5027345;28;20052;-58
2023/12/06 05:26:47;;;;;;;86.50;82.13;;;;;;;;;;5017940;28;20451;-56
2023/12/06 05:29:12;;;;;;;81.47;77.43;;;;;;;;;;5024814;28;20117;-59
2023/12/06 05:31:37;;;;;;;83.18;79.00;;;;;;;;;;5024386;28;20048;-59
2023/12/06 05:34:03;;;;;;;81.32;77.25;;;;;;;;;;5028509;28;20083;-60
2023/12/06 05:36:28;;;;;;;82.82;78.68;;;;;;;;;;5022285;28;20572;-58
2023/12/06 05:38:53;;;;;;;84.95;80.70;;;;;;;;;;5035360;28;20033;-58
2023/12/06 05:41:19;;;;;;;80.28;76.22;;;;;;;;;;5031169;28;20596;-58
2023/12/06 05:43:44;;;;;;;80.50;76.45;;;;;;;;;;5028723;28;20042;-59
2023/12/06 05:46:10;;;;;;;81.28;77.22;;;;;;;;;;5028609;28;20040;-58
2023/12/06 05:48:35;;;;;;;82.03;77.88;;;;;;;;;;5030804;28;20032;-59
2023/12/06 05:51:01;;;;;;;85.78;81.35;;;;;;;;;;5029332;28;20042;-58
2023/12/06 05:53:26;;;;;;;87.35;82.97;;;;;;;;;;5028626;28;20091;-59
2023/12/06 05:55:51;;;;;;;82.85;78.63;;;;;;;;;;5028813;28;20359;-58
2023/12/06 05:58:17;;;;;;;81.65;77.50;;;;;;;;;;5031629;28;20333;-58
2023/12/06 06:00:42;;;;;;;85.07;80.78;;;;;;;;;;5029134;28;20045;-58
2023/12/06 06:03:07;;;;;;;85.53;81.22;;;;;;;;;;5025827;28;20470;-59
2023/12/06 06:05:33;;;;;;;81.88;77.78;;;;;;;;;;5030619;28;20627;-58
2023/12/06 06:07:59;;;;;;;82.25;78.07;;;;;;;;;;5026185;28;20039;-58
2023/12/06 06:10:25;;;;;;;82.13;78.00;;;;;;;;;;5029019;28;20048;-59
2023/12/06 06:12:51;;;;;;;80.03;76.03;;;;;;;;;;5028145;28;20407;-59
2023/12/06 06:15:16;;;;;;;77.90;73.85;;;;;;;;;;5025492;28;20083;-59
2023/12/06 06:17:42;;;;;;;76.55;72.70;;;;;;;;;;5027715;28;20124;-59
2023/12/06 06:20:09;;;;;;;79.90;75.85;;;;;;;;;;5023386;28;20030;-59
2023/12/06 06:22:35;;;;;;;81.90;77.75;;;;;;;;;;5026639;28;20418;-58
2023/12/06 06:25:00;;;;;;;83.90;79.60;;;;;;;;;;5024523;28;20040;-59
2023/12/06 06:27:26;;;;;;;79.03;75.10;;;;;;;;;;5026101;28;20040;-59
2023/12/06 06:29:51;;;;;;;71.57;67.85;;;;;;;;;;5013327;28;20028;-58
2023/12/06 06:32:16;;;;;;;74.57;70.80;;;;;;;;;;5026034;28;20044;-57
2023/12/06 06:34:42;;;;;;;79.30;75.35;;;;;;;;;;5027847;28;20404;-58
2023/12/06 06:37:08;;;;;;;76.72;72.78;;;;;;;;;;5026491;28;20695;-58
2023/12/06 06:39:44;;;;;;;72.50;68.65;;;;;;;;;;5025714;28;20044;-57
2023/12/06 06:42:09;;;;;;;71.97;68.13;;;;;;;;;;5025403;28;20052;-58
2023/12/06 06:44:35;;;;;;;72.07;68.47;;;;;;;;;;5025316;28;20780;-58
2023/12/06 06:47:00;;;;;;;71.10;67.50;;;;;;;;;;5026629;28;20511;-58
2023/12/06 06:49:25;;;;;;;70.13;66.57;;;;;;;;;;5007574;28;20033;-58
2023/12/06 06:51:51;;;;;;;70.97;67.38;;;;;;;;;;5026396;28;20158;-58
2023/12/06 06:54:16;;;;;;;69.63;66.07;;;;;;;;;;5026914;28;20080;-58
2023/12/06 06:56:42;;;;;;;73.93;70.22;;;;;;;;;;5029282;28;20029;-58
2023/12/06 06:59:07;;;;;;;74.25;70.45;;;;;;;;;;5026509;28;20037;-58
2023/12/06 07:01:33;;;;;;;75.85;72.00;;;;;;;;;;5028560;28;20033;-58
2023/12/06 07:03:58;;;;;;;70.53;66.85;;;;;;;;;;5029009;28;20038;-58
2023/12/06 07:06:24;;;;;;;71.68;68.10;;;;;;;;;;5026719;28;20040;-58
2023/12/06 07:08:49;;;;;;;71.25;67.45;;;;;;;;;;5030370;28;20047;-58
2023/12/06 07:11:15;;;;;;;68.60;65.13;;;;;;;;;;5026878;28;20038;-58
2023/12/06 07:13:41;;;;;;;68.35;64.90;;;;;;;;;;5026755;28;20025;-58
2023/12/06 07:16:06;;;;;;;66.03;62.70;;;;;;;;;;5027280;28;20634;-57
2023/12/06 07:18:32;;;;;;;62.83;59.67;;;;;;;;;;5023673;28;20406;-56
2023/12/06 07:20:58;;;;;;;62.05;58.92;;;;;;;;;;5028116;28;20028;-56
2023/12/06 07:23:23;;;;;;;62.03;58.90;;;;;;;;;;5023843;28;20048;-54
2023/12/06 07:25:49;;;;;;;64.53;61.28;;;;;;;;;;5026864;28;20430;-56
2023/12/06 07:28:15;;;;;;;62.80;59.60;;;;;;;;;;5020640;28;20043;-56
2023/12/06 07:30:40;;;;;;;70.90;67.35;;;;;;;;;;5024147;28;21156;-56
2023/12/06 07:33:07;;;;;;;66.10;62.75;;;;;;;;;;5025385;28;20445;-55
2023/12/06 07:35:33;;;;;;;67.55;64.13;;;;;;;;;;5022526;28;20029;-59
2023/12/06 07:37:59;;;;;;;66.55;63.00;;;;;;;;;;5026517;28;20025;-59
2023/12/06 07:40:24;;;;;;;68.50;65.07;;;;;;;;;;5025514;28;20359;-59
2023/12/06 07:42:49;;;;;;;73.55;69.85;;;;;;;;;;5027946;28;20294;-59
2023/12/06 07:45:15;;;;;;;69.20;65.72;;;;;;;;;;5027073;28;20044;-59
2023/12/06 07:47:40;;;;;;;66.53;63.17;;;;;;;;;;5022940;28;20042;-59
2023/12/06 07:50:07;;;;;;;64.60;61.33;;;;;;;;;;5024216;28;20087;-59
2023/12/06 07:52:33;;;;;;;66.22;62.88;;;;;;;;;;5025545;28;20056;-59
2023/12/06 07:54:59;;;;;;;64.82;61.50;;;;;;;;;;5026168;28;20033;-59
2023/12/06 07:57:27;;;;;;;63.70;60.35;;;;;;;;;;5025568;28;20446;-59
2023/12/06 07:59:53;;;;;;;63.72;60.50;;;;;;;;;;5025807;28;20105;-59
2023/12/06 08:02:18;;;;;;;62.10;58.70;;;;;;;;;;5027859;28;20116;-59
2023/12/06 08:04:44;;;;;;;64.43;61.17;;;;;;;;;;5025170;28;20482;-59
2023/12/06 08:07:09;;;;;;;61.13;57.92;;;;;;;;;;5026397;28;20029;-59
2023/12/06 08:09:34;;;;;;;59.80;56.72;;;;;;;;;;5025388;28;20038;-59
2023/12/06 08:12:00;;;;;;;61.08;57.88;;;;;;;;;;5022842;28;20676;-59
2023/12/06 08:14:26;;;;;;;62.10;58.83;;;;;;;;;;5025417;28;20064;-59
2023/12/06 08:16:52;;;;;;;59.28;56.25;;;;;;;;;;5024540;28;20425;-59
2023/12/06 08:19:17;;;;;;;57.55;54.60;;;;;;;;;;5025947;28;20156;-59
2023/12/06 08:21:43;;;;;;;58.00;54.90;;;;;;;;;;5024274;28;20040;-59
2023/12/06 08:24:08;;;;;;;59.60;56.60;;;;;;;;;;5023914;28;20041;-59
2023/12/06 08:26:34;;;;;;;58.88;55.78;;;;;;;;;;5024300;28;20041;-60
2023/12/06 08:29:00;;;;;;;57.55;54.63;;;;;;;;;;5023651;28;20032;-59
2023/12/06 08:31:28;;;;;;;53.67;50.70;;;;;;;;;;5024906;28;20037;-59
2023/12/06 08:33:53;;;;;;;51.75;48.88;;;;;;;;;;5027564;28;20418;-59
2023/12/06 08:36:19;;;;;;;53.20;50.33;;;;;;;;;;5027463;28;20037;-59
2023/12/06 08:38:44;;;;;;;52.05;49.35;;;;;;;;;;5025487;28;20040;-59
2023/12/06 08:41:09;;;;;;;54.58;51.67;;;;;;;;;;5024571;28;20061;-59
2023/12/06 08:43:35;;;;;;;53.22;50.35;;;;;;;;;;5024722;28;20041;-59
2023/12/06 08:46:01;;;;;;;51.63;48.95;;;;;;;;;;5022497;28;20054;-59
2023/12/06 08:48:26;;;;;;;50.13;47.53;;;;;;;;;;5023754;28;20033;-59
2023/12/06 08:50:52;;;;;;;47.35;44.67;;;;;;;;;;5024213;28;20437;-59
2023/12/06 08:53:17;;;;;;;43.38;41.17;;;;;;;;;;5025007;28;20116;-60
2023/12/06 08:55:43;;;;;;;47.83;45.33;;;;;;;;;;5024286;28;20069;-59
2023/12/06 08:58:08;;;;;;;46.70;44.22;;;;;;;;;;5024540;28;20481;-59
2023/12/06 09:00:33;;;;;;;47.10;44.60;;;;;;;;;;5023728;28;20094;-59
2023/12/06 09:02:59;;;;;;;46.78;44.33;;;;;;;;;;5024183;28;20053;-59
2023/12/06 09:05:24;;;;;;;46.42;44.00;;;;;;;;;;5021342;28;20025;-59
2023/12/06 09:07:50;;;;;;;46.63;44.05;;;;;;;;;;5028923;28;20353;-59
2023/12/06 09:10:15;;;;;;;44.78;42.28;;;;;;;;;;5024444;28;20037;-59
2023/12/06 09:12:41;;;;;;;42.97;40.72;;;;;;;;;;5021716;28;20037;-59
2023/12/06 09:15:06;;;;;;;45.38;42.65;;;;;;;;;;5021555;28;20033;-59
2023/12/06 09:17:33;;;;;;;47.53;45.05;;;;;;;;;;5022137;28;20038;-59
2023/12/06 09:19:58;;;;;;;45.67;43.33;;;;;;;;;;5024512;28;20049;-59
2023/12/06 09:22:23;;;;;;;44.35;41.95;;;;;;;;;;5022976;28;20051;-61
2023/12/06 09:24:49;;;;;;;46.97;44.45;;;;;;;;;;5022626;28;20038;-59
2023/12/06 09:27:15;;;;;;;48.20;45.70;;;;;;;;;;5022401;28;20451;-59
2023/12/06 09:29:41;;;;;;;46.92;44.50;;;;;;;;;;5022319;28;20383;-59
2023/12/06 09:32:06;;;;;;;48.47;45.97;;;;;;;;;;5024967;28;20034;-59
2023/12/06 09:34:31;;;;;;;43.20;40.90;;;;;;;;;;5025657;28;20025;-59
2023/12/06 09:36:57;;;;;;;43.78;41.47;;;;;;;;;;5021918;28;20299;-59
2023/12/06 09:39:22;;;;;;;46.08;43.58;;;;;;;;;;5021455;28;20040;-59
2023/12/06 09:41:48;;;;;;;44.42;42.05;;;;;;;;;;5020371;28;20103;-59
2023/12/06 09:44:16;;;;;;;44.78;42.38;;;;;;;;;;5022139;28;20037;-59
2023/12/06 09:46:47;;;;;;;46.42;43.88;;;;;;;;;;5019374;28;20040;-59
2023/12/06 09:49:13;;;;;;;44.42;42.10;;;;;;;;;;5014102;28;20075;-59
2023/12/06 09:51:38;;;;;;;43.95;41.65;;;;;;;;;;5012426;28;20108;-60
2023/12/06 09:54:03;;;;;;;42.83;40.50;;;;;;;;;;5019105;28;20064;-59
2023/12/06 09:56:32;;;;;;;43.17;40.88;;;;;;;;;;5019135;28;20037;-59
2023/12/06 09:58:57;;;;;;;44.22;41.63;;;;;;;;;;5024973;28;20081;-59
2023/12/06 10:01:22;;;;;;;41.35;39.15;;;;;;;;;;5023614;28;20116;-59
2023/12/06 10:03:48;;;;;;;38.50;36.22;;;;;;;;;;5019411;28;20034;-59
2023/12/06 10:06:16;;;;;;;40.00;37.88;;;;;;;;;;5024366;28;20402;-59
2023/12/06 10:08:41;;;;;;;38.08;35.97;;;;;;;;;;5021544;28;20106;-60
2023/12/06 10:11:08;;;;;;;39.13;37.05;;;;;;;;;;5022584;28;20113;-60
2023/12/06 10:13:38;;;;;;;37.97;35.88;;;;;;;;;;5020537;28;20045;-59
2023/12/06 10:16:17;;;;;;;40.03;37.90;;;;;;;;;;5023506;28;20052;-59
2023/12/06 10:18:48;;;;;;;39.45;37.33;;;;;;;;;;5021904;28;20395;-59
2023/12/06 10:21:17;;;;;;;;;;;;;;;;;;5023468;28;20072;-59
2023/12/06 10:23:52;;;;;;;41.17;39.00;;;;;;;;;;5024017;28;19957;-60
2023/12/06 10:26:17;;;;;;;38.72;36.53;;;;;;;;;;5026091;28;20509;-60
2023/12/06 10:28:45;;;;;;;36.20;34.30;;;;;;;;;;5024401;28;20037;-59
2023/12/06 10:31:10;;;;;;;40.35;38.15;;;;;;;;;;5026068;28;20033;-59
2023/12/06 10:33:38;;;;;;;39.47;37.38;;;;;;;;;;5023430;28;20033;-59
2023/12/06 10:36:07;;;;;;;37.75;35.75;;;;;;;;;;5025845;28;20072;-59
2023/12/06 10:38:34;;;;;;;40.05;37.88;;;;;;;;;;5026430;28;20557;-59
2023/12/06 10:41:00;;;;;;;37.72;35.72;;;;;;;;;;5023631;28;20057;-59
2023/12/06 10:43:29;;;;;;;37.47;35.47;;;;;;;;;;5025893;28;20033;-59
2023/12/06 10:45:55;;;;;;;38.22;36.22;;;;;;;;;;5027437;28;20030;-59
2023/12/06 10:48:21;;;;;;;38.08;36.08;;;;;;;;;;5024931;28;20041;-60
2023/12/06 10:50:48;;;;;;;39.03;36.97;;;;;;;;;;5022806;28;20053;-57
2023/12/06 10:53:16;;;;;;;39.95;37.85;;;;;;;;;;5031199;28;20586;-59
2023/12/06 10:55:42;;;;;;;38.10;35.83;;;;;;;;;;5025877;28;20033;-59
2023/12/06 10:58:08;;;;;;;38.10;36.10;;;;;;;;;;5026542;28;20041;-60
2023/12/06 11:00:34;;;;;;;39.03;36.95;;;;;;;;;;5024013;28;20044;-59
2023/12/06 11:02:59;;;;;;;40.90;38.60;;;;;;;;;;5026353;28;20509;-60
2023/12/06 11:05:28;;;;;;;37.22;35.13;;;;;;;;;;5022918;28;20450;-59
2023/12/06 11:08:19;;;;;;;37.72;35.53;;;;;;;;;;5027719;28;20049;-59
2023/12/06 11:11:22;;;;;;;36.95;35.03;;;;;;;;;;5025710;28;20143;-59
2023/12/06 11:14:07;;;;;;;40.00;37.80;;;;;;;;;;5024459;28;20037;-59
2023/12/06 11:16:38;;;;;;;38.30;36.08;;;;;;;;;;5025738;28;20502;-60
2023/12/06 11:19:04;;;;;;;36.03;34.05;;;;;;;;;;5022629;28;20439;-57
2023/12/06 11:21:30;;;;;;;37.80;35.80;;;;;;;;;;5026826;28;20041;-60
2023/12/06 11:23:57;;;;;;;37.08;34.90;;;;;;;;;;5028202;28;20103;-59
2023/12/06 11:26:23;;;;;;;38.92;36.50;;;;;;;;;;5028723;28;20042;-60
2023/12/06 11:28:50;;;;;;;36.83;34.83;;;;;;;;;;5027285;28;20029;-60
2023/12/06 11:31:16;;;;;;;35.85;33.95;;;;;;;;;;5026605;28;20034;-60
2023/12/06 11:33:55;;;;;;;36.58;34.67;;;;;;;;;;5024281;28;20029;-60
2023/12/06 11:36:24;;;;;;;37.05;34.92;;;;;;;;;;5026347;28;20029;-56
2023/12/06 11:38:49;;;;;;;36.42;34.50;;;;;;;;;;5025932;28;20044;-60
2023/12/06 11:41:16;;;;;;;38.20;36.17;;;;;;;;;;5025630;28;20037;-60
2023/12/06 11:43:48;;;;;;;36.58;34.38;;;;;;;;;;5022941;28;20935;-60
2023/12/06 11:46:14;;;;;;;36.15;34.25;;;;;;;;;;5026897;28;20293;-61
2023/12/06 11:48:43;;;;;;;35.67;33.78;;;;;;;;;;5026751;28;20039;-60
2023/12/06 11:51:22;;;;;;;38.85;36.70;;;;;;;;;;5022414;28;20109;-60
2023/12/06 11:53:52;;;;;;;36.83;34.83;;;;;;;;;;5022848;28;20037;-60
2023/12/06 11:56:24;;;;;;;37.33;35.40;;;;;;;;;;5027174;28;20033;-60
2023/12/06 11:58:50;;;;;;;36.38;34.47;;;;;;;;;;5024531;28;20556;-60
2023/12/06 12:01:17;;;;;;;39.17;36.33;;;;;;;;;;5024735;28;20033;-60
2023/12/06 12:03:44;;;;;;;40.33;38.03;;;;;;;;;;5023883;28;20412;-60
2023/12/06 12:06:10;;;;;;;36.85;34.83;;;;;;;;;;5022156;28;20038;-60
2023/12/06 12:08:36;;;;;;;37.72;35.60;;;;;;;;;;5027138;28;20061;-60
2023/12/06 12:11:02;;;;;;;34.97;33.13;;;;;;;;;;5021026;28;20094;-60
2023/12/06 12:13:28;;;;;;;37.97;35.88;;;;;;;;;;5024110;28;20030;-60
2023/12/06 12:16:01;;;;;;;38.33;36.03;;;;;;;;;;5019902;28;20033;-53
2023/12/06 12:18:27;;;;;;;38.42;36.38;;;;;;;;;;5026159;28;20041;-56
2023/12/06 12:20:55;;;;;;;39.33;37.03;;;;;;;;;;5023699;28;20091;-56
2023/12/06 12:23:21;;;;;;;36.40;34.42;;;;;;;;;;5027937;28;20627;-56
2023/12/06 12:25:50;;;;;;;38.28;36.28;;;;;;;;;;5023893;28;20091;-57
2023/12/06 12:28:19;;;;;;;37.33;35.22;;;;;;;;;;5028320;28;20121;-56
2023/12/06 12:30:46;;;;;;;37.83;35.65;;;;;;;;;;5024523;28;20450;-57
2023/12/06 12:33:14;;;;;;;38.60;36.47;;;;;;;;;;5027387;28;20033;-56
2023/12/06 12:35:39;;;;;;;39.83;37.78;;;;;;;;;;5023521;28;20101;-56
2023/12/06 12:38:05;;;;;;;39.30;37.10;;;;;;;;;;5031513;28;20315;-57
2023/12/06 12:40:31;;;;;;;38.65;36.58;;;;;;;;;;5027241;28;20103;-59
2023/12/06 12:42:57;;;;;;;38.85;36.72;;;;;;;;;;5019397;28;20033;-59
2023/12/06 12:45:23;;;;;;;38.90;36.85;;;;;;;;;;5023380;28;20410;-60
2023/12/06 12:47:49;;;;;;;39.97;37.90;;;;;;;;;;5020995;28;20048;-60
2023/12/06 12:50:18;;;;;;;37.33;35.33;;;;;;;;;;5027456;28;20050;-60
2023/12/06 12:52:44;;;;;;;37.55;35.55;;;;;;;;;;5022655;28;20037;-59
2023/12/06 12:55:10;;;;;;;38.95;36.90;;;;;;;;;;5029400;28;20091;-60
2023/12/06 12:57:43;;;;;;;39.85;37.67;;;;;;;;;;5019871;28;20036;-60
2023/12/06 13:00:22;;;;;;;38.60;36.55;;;;;;;;;;5020428;28;21461;-59
2023/12/06 13:02:48;;;;;;;37.90;35.85;;;;;;;;;;5022745;28;20036;-59
2023/12/06 13:05:14;;;;;;;37.05;35.10;;;;;;;;;;5025484;28;20082;-60
2023/12/06 13:07:39;;;;;;;41.38;39.20;;;;;;;;;;5022940;28;20124;-60
2023/12/06 13:10:07;;;;;;;41.33;39.13;;;;;;;;;;5022482;28;20083;-60
2023/12/06 13:12:34;;;;;;;42.97;40.72;;;;;;;;;;5023363;28;20038;-60
2023/12/06 13:14:59;;;;;;;41.78;39.60;;;;;;;;;;5027663;28;20041;-60
2023/12/06 13:17:27;;;;;;;41.72;39.40;;;;;;;;;;5021766;28;20040;-60
2023/12/06 13:19:52;;;;;;;40.53;38.38;;;;;;;;;;5019442;28;20076;-60
2023/12/06 13:22:18;;;;;;;41.47;39.30;;;;;;;;;;5019953;28;20138;-59
2023/12/06 13:24:43;;;;;;;44.47;42.10;;;;;;;;;;5022868;28;20033;-60
2023/12/06 13:27:09;;;;;;;40.33;38.22;;;;;;;;;;5024330;28;20128;-60
2023/12/06 13:29:34;;;;;;;42.13;39.88;;;;;;;;;;5025460;28;20127;-59
2023/12/06 13:32:02;;;;;;;40.50;38.38;;;;;;;;;;5019412;28;20045;-60
2023/12/06 13:34:27;;;;;;;42.40;40.15;;;;;;;;;;5024078;28;20044;-60
2023/12/06 13:36:54;;;;;;;41.15;38.97;;;;;;;;;;5021834;28;20367;-60
2023/12/06 13:39:19;;;;;;;38.33;36.30;;;;;;;;;;5026620;28;20033;-60
2023/12/06 13:41:45;;;;;;;42.47;40.22;;;;;;;;;;5021448;28;20527;-60
2023/12/06 13:44:10;;;;;;;40.65;38.53;;;;;;;;;;5027525;28;20659;-60
2023/12/06 13:46:37;;;;;;;44.30;41.92;;;;;;;;;;5023264;28;20464;-60
2023/12/06 13:49:03;;;;;;;42.92;40.70;;;;;;;;;;5021762;28;20036;-60
2023/12/06 13:51:29;;;;;;;43.22;40.95;;;;;;;;;;5021356;28;20056;-60
2023/12/06 13:53:55;;;;;;;41.75;39.47;;;;;;;;;;5021650;28;20048;-60
2023/12/06 13:56:21;;;;;;;41.75;39.58;;;;;;;;;;5027275;28;20450;-60
2023/12/06 13:58:47;;;;;;;42.33;40.03;;;;;;;;;;5025247;28;20037;-59
2023/12/06 14:01:12;;;;;;;43.30;41.05;;;;;;;;;;5032442;28;20041;-60
2023/12/06 14:03:42;;;;;;;42.97;40.65;;;;;;;;;;5028256;28;20026;-60
2023/12/06 14:06:11;;;;;;;41.85;39.70;;;;;;;;;;5026954;28;20034;-60
2023/12/06 14:08:36;;;;;;;42.88;40.63;;;;;;;;;;5027655;28;20052;-60
2023/12/06 14:11:03;;;;;;;42.22;40.05;;;;;;;;;;5029140;28;20337;-60
2023/12/06 14:13:29;;;;;;;42.22;39.97;;;;;;;;;;5027800;28;20037;-59